Time;durP1;ratioP1;P1;durP2;ratioP2;P2;SDS_P1;SDS_P2;PMS_P1;PMS_P2;Temp;Humidity;BMP_temperature;BMP_pressure;BME280_temperature;BME280_humidity;BME280_pressure;Samples;Min_cycle;Max_cycle;Signal;HPM_P1;HPM_P2
2022/03/26 00:01:03;;;;;;;;;;;;;;;;;;5052869;28;19915;-47
2022/03/26 00:03:28;;;;;;;;;;;;;;;;;;5052726;28;19921;-47
2022/03/26 00:05:54;;;;;;;;;;;;;;;;;;5052733;28;20286;-46
2022/03/26 00:08:20;;;;;;;;;;;;;;;;;;5052849;28;19916;-47
2022/03/26 00:10:46;;;;;;;;;;;;;;;;;;5052789;28;19904;-46
2022/03/26 00:13:12;;;;;;;;;;;;;;;;;;5052961;28;19905;-47
2022/03/26 00:15:38;;;;;;;;;;;;;;;;;;5052706;28;19944;-47
2022/03/26 00:18:04;;;;;;;;;;;;;;;;;;5052552;28;20467;-46
2022/03/26 00:20:30;;;;;;;;;;;;;;;;;;5052521;28;19955;-47
2022/03/26 00:22:56;;;;;;;;;;;;;;;;;;5052195;28;20363;-47
2022/03/26 00:25:22;;;;;;;;;;;;;;;;;;5052435;28;19913;-46
2022/03/26 00:27:49;;;;;;;;;;;;;;;;;;5052403;28;19973;-46
2022/03/26 00:30:15;;;;;;;;;;;;;;;;;;5052401;28;19904;-46
2022/03/26 00:32:40;;;;;;;;;;;;;;;;;;5052276;28;19945;-47
2022/03/26 00:35:09;;;;;;;;;;;;;;;;;;5052452;28;20375;-46
2022/03/26 00:37:34;;;;;;;;;;;;;;;;;;5052268;28;19911;-46
2022/03/26 00:40:00;;;;;;;;;;;;;;;;;;5052386;28;19916;-47
2022/03/26 00:42:26;;;;;;;;;;;;;;;;;;5052439;28;19905;-48
2022/03/26 00:44:52;;;;;;;;;;;;;;;;;;5052324;28;20035;-46
2022/03/26 00:47:18;;;;;;;;;;;;;;;;;;5052274;28;19904;-46
2022/03/26 00:49:44;;;;;;;;;;;;;;;;;;5052351;28;20007;-48
2022/03/26 00:52:10;;;;;;;;;;;;;;;;;;5052607;28;20464;-48
2022/03/26 00:54:36;;;;;;;;;;;;;;;;;;5052295;28;19905;-47
2022/03/26 00:57:01;;;;;;;;;;;;;;;;;;5052453;28;19958;-47
2022/03/26 00:59:27;;;;;;;;;;;;;;;;;;5052358;28;20363;-47
2022/03/26 01:01:53;;;;;;;;;;;;;;;;;;5051919;28;19999;-47
2022/03/26 01:04:19;;;;;;;;;;;;;;;;;;5052165;28;19912;-46
2022/03/26 01:06:45;;;;;;;;;;;;;;;;;;5052001;28;19952;-47
2022/03/26 01:09:11;;;;;;;;;;;;;;;;;;5052034;28;19940;-48
2022/03/26 01:11:37;;;;;;;;;;;;;;;;;;5051989;28;20335;-48
2022/03/26 01:14:03;;;;;;;;;;;;;;;;;;5052007;28;19951;-46
2022/03/26 01:16:30;;;;;;;;;;;;;;;;;;5052054;28;19904;-47
2022/03/26 01:18:56;;;;;;;;;;;;;;;;;;5052274;28;20286;-47
2022/03/26 01:21:22;;;;;;;;;;;;;;;;;;5051871;28;19905;-47
2022/03/26 01:23:47;;;;;;;;;;;;;;;;;;5051743;28;19904;-47
2022/03/26 01:26:13;;;;;;;;;;;;;;;;;;5052161;28;19926;-47
2022/03/26 01:28:39;;;;;;;;;;;;;;;;;;5034086;28;20000;-47
2022/03/26 01:31:05;;;;;;;;;;;;;;;;;;5052125;28;19905;-47
2022/03/26 01:33:31;;;;;;;;;;;;;;;;;;5051931;28;19928;-47
2022/03/26 01:35:57;;;;;;;;;;;;;;;;;;5055662;28;19928;-47
2022/03/26 01:38:23;;;;;;;;;;;;;;;;;;5055878;28;19904;-46
2022/03/26 01:40:49;;;;;;;;;;;;;;;;;;5055521;28;19995;-46
2022/03/26 01:43:15;;;;;;;;;;;;;;;;;;5055731;28;20299;-46
2022/03/26 01:45:41;;;;;;;;;;;;;;;;;;5055425;28;19959;-46
2022/03/26 01:48:07;;;;;;;;;;;;;;;;;;5055370;28;19904;-46
2022/03/26 01:50:32;;;;;;;;;;;;;;;;;;5055290;28;19904;-47
2022/03/26 01:52:58;;;;;;;;;;;;;;;;;;5055412;28;19912;-46
2022/03/26 01:55:24;;;;;;;;;;;;;;;;;;5055277;28;20346;-46
2022/03/26 01:57:50;;;;;;;;;;;;;;;;;;5055182;28;19908;-47
2022/03/26 02:00:16;;;;;;;;;;;;;;;;;;5055134;28;19904;-46
2022/03/26 02:02:45;;;;;;;;;;;;;;;;;;5054992;28;20414;-46
2022/03/26 02:05:11;;;;;;;;;;;;;;;;;;5055238;28;20283;-46
2022/03/26 02:07:37;;;;;;;;;;;;;;;;;;5055024;28;19905;-47
2022/03/26 02:10:03;;;;;;;;;;;;;;;;;;5055066;28;19905;-48
2022/03/26 02:12:29;;;;;;;;;;;;;;;;;;5055085;28;19905;-47
2022/03/26 02:14:55;;;;;;;;;;;;;;;;;;5054932;28;20357;-46
2022/03/26 02:17:21;;;;;;;;;;;;;;;;;;5055469;28;19947;-46
2022/03/26 02:19:46;;;;;;;;;;;;;;;;;;5054815;28;20360;-46
2022/03/26 02:22:12;;;;;;;;;;;;;;;;;;5054729;28;19996;-46
2022/03/26 02:24:38;;;;;;;;;;;;;;;;;;5054777;28;19904;-47
2022/03/26 02:27:04;;;;;;;;;;;;;;;;;;5054608;28;20134;-47
2022/03/26 02:29:30;;;;;;;;;;;;;;;;;;5054663;28;19932;-46
2022/03/26 02:31:56;;;;;;;;;;;;;;;;;;5054796;28;19952;-46
2022/03/26 02:34:24;;;;;;;;;;;;;;;;;;5054533;28;19905;-47
2022/03/26 02:36:50;;;;;;;;;;;;;;;;;;5054557;28;19909;-47
2022/03/26 02:39:16;;;;;;;;;;;;;;;;;;5054390;28;20359;-46
2022/03/26 02:41:41;;;;;;;;;;;;;;;;;;5054491;28;19905;-47
2022/03/26 02:44:07;;;;;;;;;;;;;;;;;;5054624;28;19999;-48
2022/03/26 02:46:34;;;;;;;;;;;;;;;;;;5053880;28;20378;-46
2022/03/26 02:49:00;;;;;;;;;;;;;;;;;;5054289;28;19911;-46
2022/03/26 02:51:25;;;;;;;;;;;;;;;;;;5054209;28;19996;-47
2022/03/26 02:53:51;;;;;;;;;;;;;;;;;;5054209;28;20378;-47
2022/03/26 02:56:19;;;;;;;;;;;;;;;;;;5054140;28;19948;-47
2022/03/26 02:58:45;;;;;;;;;;;;;;;;;;5054382;28;19944;-47
2022/03/26 03:01:13;;;;;;;;;;;;;;;;;;5054059;28;20282;-47
2022/03/26 03:03:38;;;;;;;;;;;;;;;;;;5053790;28;19939;-47
2022/03/26 03:06:04;;;;;;;;;;;;;;;;;;5053939;28;20272;-47
2022/03/26 03:08:30;;;;;;;;;;;;;;;;;;5053979;28;19916;-48
2022/03/26 03:10:56;;;;;;;;;;;;;;;;;;5053986;28;19905;-47
2022/03/26 03:13:22;;;;;;;;;;;;;;;;;;5053707;28;19905;-47
2022/03/26 03:15:48;;;;;;;;;;;;;;;;;;5054071;28;19975;-47
2022/03/26 03:18:14;;;;;;;;;;;;;;;;;;5053932;28;19924;-46
2022/03/26 03:20:40;;;;;;;;;;;;;;;;;;5053695;28;20399;-47
2022/03/26 03:23:06;;;;;;;;;;;;;;;;;;5053558;28;19999;-47
2022/03/26 03:25:31;;;;;;;;;;;;;;;;;;5053581;28;19913;-48
2022/03/26 03:27:57;;;;;;;;;;;;;;;;;;5053780;28;19905;-47
2022/03/26 03:30:24;;;;;;;;;;;;;;;;;;5053788;28;20283;-47
2022/03/26 03:32:49;;;;;;;;;;;;;;;;;;5053465;28;19904;-46
2022/03/26 03:35:16;;;;;;;;;;;;;;;;;;5053688;28;19905;-47
2022/03/26 03:37:42;;;;;;;;;;;;;;;;;;5053641;28;20267;-47
2022/03/26 03:40:08;;;;;;;;;;;;;;;;;;5053617;28;19951;-46
2022/03/26 03:42:34;;;;;;;;;;;;;;;;;;5053224;28;20406;-46
2022/03/26 03:45:00;;;;;;;;;;;;;;;;;;5053129;28;20007;-47
2022/03/26 03:47:26;;;;;;;;;;;;;;;;;;5053273;28;19904;-46
2022/03/26 03:49:51;;;;;;;;;;;;;;;;;;5053355;28;20410;-46
2022/03/26 03:52:17;;;;;;;;;;;;;;;;;;5053217;28;19904;-46
2022/03/26 03:54:43;;;;;;;;;;;;;;;;;;5052916;28;20287;-46
2022/03/26 03:57:09;;;;;;;;;;;;;;;;;;5052322;28;19907;-48
2022/03/26 03:59:40;;;;;;;;;;;;;;;;;;5052971;28;19904;-47
2022/03/26 04:02:07;;;;;;;;;;;;;;;;;;5052910;28;20314;-47
2022/03/26 04:04:33;;;;;;;;;;;;;;;;;;5052955;28;19904;-47
2022/03/26 04:06:59;;;;;;;;;;;;;;;;;;5052764;28;19919;-47
2022/03/26 04:09:25;;;;;;;;;;;;;;;;;;5052773;28;19905;-46
2022/03/26 04:11:51;;;;;;;;;;;;;;;;;;5052798;28;20007;-47
2022/03/26 04:14:18;;;;;;;;;;;;;;;;;;5052663;28;20443;-46
2022/03/26 04:16:43;;;;;;;;;;;;;;;;;;5052967;28;19955;-47
2022/03/26 04:19:10;;;;;;;;;;;;;;;;;;5052699;28;19905;-47
2022/03/26 04:21:35;;;;;;;;;;;;;;;;;;5052688;28;19912;-47
2022/03/26 04:24:02;;;;;;;;;;;;;;;;;;5052857;28;19904;-46
2022/03/26 04:26:28;;;;;;;;;;;;;;;;;;5052522;28;19982;-47
2022/03/26 04:28:54;;;;;;;;;;;;;;;;;;5052569;28;20363;-47
2022/03/26 04:31:19;;;;;;;;;;;;;;;;;;5052459;28;19999;-47
2022/03/26 04:33:45;;;;;;;;;;;;;;;;;;5052542;28;20031;-47
2022/03/26 04:36:11;;;;;;;;;;;;;;;;;;5052456;28;19905;-47
2022/03/26 04:38:38;;;;;;;;;;;;;;;;;;5052342;28;19911;-47
2022/03/26 04:41:04;;;;;;;;;;;;;;;;;;5052403;28;20370;-47
2022/03/26 04:43:30;;;;;;;;;;;;;;;;;;5052324;28;20106;-47
2022/03/26 04:45:55;;;;;;;;;;;;;;;;;;5052222;28;19971;-47
2022/03/26 04:48:21;;;;;;;;;;;;;;;;;;5052210;28;19912;-47
2022/03/26 04:50:47;;;;;;;;;;;;;;;;;;5052242;28;20287;-47
2022/03/26 04:53:13;;;;;;;;;;;;;;;;;;5052232;28;19967;-47
2022/03/26 04:55:39;;;;;;;;;;;;;;;;;;5052483;28;19905;-47
2022/03/26 04:58:05;;;;;;;;;;;;;;;;;;5052166;28;19905;-47
2022/03/26 05:00:31;;;;;;;;;;;;;;;;;;5052124;28;19912;-47
2022/03/26 05:02:57;;;;;;;;;;;;;;;;;;5052042;28;19923;-47
2022/03/26 05:05:23;;;;;;;;;;;;;;;;;;5052365;28;20271;-46
2022/03/26 05:07:51;;;;;;;;;;;;;;;;;;5052604;28;19909;-47
2022/03/26 05:10:17;;;;;;;;;;;;;;;;;;5056402;28;20283;-46
2022/03/26 05:12:43;;;;;;;;;;;;;;;;;;5056067;28;19904;-47
2022/03/26 05:15:09;;;;;;;;;;;;;;;;;;5056063;28;19904;-46
2022/03/26 05:17:35;;;;;;;;;;;;;;;;;;5056382;28;19912;-47
2022/03/26 05:20:01;;;;;;;;;;;;;;;;;;5056161;28;19911;-47
2022/03/26 05:22:28;;;;;;;;;;;;;;;;;;5055823;28;19998;-48
2022/03/26 05:24:54;;;;;;;;;;;;;;;;;;5055745;28;19905;-46
2022/03/26 05:27:20;;;;;;;;;;;;;;;;;;5055794;28;20407;-47
2022/03/26 05:29:46;;;;;;;;;;;;;;;;;;5055613;28;19905;-47
2022/03/26 05:32:12;;;;;;;;;;;;;;;;;;5055794;28;19911;-47
2022/03/26 05:34:38;;;;;;;;;;;;;;;;;;5055732;28;20003;-46
2022/03/26 05:37:04;;;;;;;;;;;;;;;;;;5055687;28;19905;-59
2022/03/26 05:39:30;;;;;;;;;;;;;;;;;;5055922;28;19912;-60
2022/03/26 05:41:56;;;;;;;;;;;;;;;;;;5055529;28;19911;-59
2022/03/26 05:44:22;;;;;;;;;;;;;;;;;;5055546;28;19905;-59
2022/03/26 05:46:48;;;;;;;;;;;;;;;;;;5055274;28;19919;-60
2022/03/26 05:49:14;;;;;;;;;;;;;;;;;;5055361;28;19947;-59
2022/03/26 05:51:40;;;;;;;;;;;;;;;;;;5055625;28;20178;-60
2022/03/26 05:54:06;;;;;;;;;;;;;;;;;;5055267;28;19975;-60
2022/03/26 05:56:36;;;;;;;;;;;;;;;;;;5055646;28;19904;-60
2022/03/26 05:59:02;;;;;;;;;;;;;;;;;;5055486;28;19911;-60
2022/03/26 06:01:28;;;;;;;;;;;;;;;;;;5055147;28;19999;-60
2022/03/26 06:03:53;;;;;;;;;;;;;;;;;;5054924;28;19924;-60
2022/03/26 06:06:19;;;;;;;;;;;;;;;;;;5055009;28;19955;-60
2022/03/26 06:08:46;;;;;;;;;;;;;;;;;;5055575;28;19958;-60
2022/03/26 06:11:11;;;;;;;;;;;;;;;;;;5055263;28;19905;-60
2022/03/26 06:13:38;;;;;;;;;;;;;;;;;;5055221;28;19912;-60
2022/03/26 06:16:04;;;;;;;;;;;;;;;;;;5055331;28;19905;-60
2022/03/26 06:18:31;;;;;;;;;;;;;;;;;;5055140;28;20393;-60
2022/03/26 06:20:57;;;;;;;;;;;;;;;;;;5054308;28;20277;-60
2022/03/26 06:23:22;;;;;;;;;;;;;;;;;;5055069;28;19911;-59
2022/03/26 06:25:48;;;;;;;;;;;;;;;;;;5054923;28;19919;-60
2022/03/26 06:28:19;;;;;;;;;;;;;;;;;;5054942;28;19909;-60
2022/03/26 06:30:44;;;;;;;;;;;;;;;;;;5054993;28;19905;-48
2022/03/26 06:33:12;;;;;;;;;;;;;;;;;;5054869;28;19909;-48
2022/03/26 06:35:38;;;;;;;;;;;;;;;;;;5054791;28;19995;-47
2022/03/26 06:38:04;;;;;;;;;;;;;;;;;;5054945;28;19993;-47
2022/03/26 06:40:30;;;;;;;;;;;;;;;;;;5054697;28;20074;-47
2022/03/26 06:42:56;;;;;;;;;;;;;;;;;;5054907;28;19904;-47
2022/03/26 06:45:22;;;;;;;;;;;;;;;;;;5054507;28;19920;-47
2022/03/26 06:47:48;;;;;;;;;;;;;;;;;;5054538;28;19904;-47
2022/03/26 06:50:14;;;;;;;;;;;;;;;;;;5054523;28;19988;-47
2022/03/26 06:52:40;;;;;;;;;;;;;;;;;;5054472;28;20441;-47
2022/03/26 06:55:05;;;;;;;;;;;;;;;;;;5054380;28;19951;-47
2022/03/26 06:57:31;;;;;;;;;;;;;;;;;;5054666;28;19923;-47
2022/03/26 06:59:57;;;;;;;;;;;;;;;;;;5054339;28;19999;-47
2022/03/26 07:02:23;;;;;;;;;;;;;;;;;;5053989;28;20363;-47
2022/03/26 07:04:49;;;;;;;;;;;;;;;;;;5054219;28;19959;-47
2022/03/26 07:07:15;;;;;;;;;;;;;;;;;;5054135;28;19912;-46
2022/03/26 07:09:41;;;;;;;;;;;;;;;;;;5054171;28;20031;-48
2022/03/26 07:12:07;;;;;;;;;;;;;;;;;;5054036;28;20004;-47
2022/03/26 07:14:33;;;;;;;;;;;;;;;;;;5054040;28;20058;-48
2022/03/26 07:16:59;;;;;;;;;;;;;;;;;;5053945;28;19905;-47
2022/03/26 07:19:25;;;;;;;;;;;;;;;;;;5053908;28;20387;-47
2022/03/26 07:21:51;;;;;;;;;;;;;;;;;;5053882;28;19983;-47
2022/03/26 07:24:16;;;;;;;;;;;;;;;;;;5053835;28;19904;-46
2022/03/26 07:26:42;;;;;;;;;;;;;;;;;;5053771;28;20391;-47
2022/03/26 07:29:08;;;;;;;;;;;;;;;;;;5053721;28;19996;-47
2022/03/26 07:31:34;;;;;;;;;;;;;;;;;;5052617;28;19905;-47
2022/03/26 07:34:00;;;;;;;;;;;;;;;;;;5053587;28;19952;-47
2022/03/26 07:36:26;;;;;;;;;;;;;;;;;;5053530;28;19911;-47
2022/03/26 07:38:52;;;;;;;;;;;;;;;;;;5053527;28;19985;-47
2022/03/26 07:41:18;;;;;;;;;;;;;;;;;;5053805;28;20355;-48
2022/03/26 07:43:43;;;;;;;;;;;;;;;;;;5053497;28;19988;-47
2022/03/26 07:46:09;;;;;;;;;;;;;;;;;;5053735;28;20268;-47
2022/03/26 07:48:35;;;;;;;;;;;;;;;;;;5053336;28;20322;-48
2022/03/26 07:51:01;;;;;;;;;;;;;;;;;;5053331;28;20003;-49
2022/03/26 07:53:29;;;;;;;;;;;;;;;;;;5053235;28;19904;-47
2022/03/26 07:55:55;;;;;;;;;;;;;;;;;;5053243;28;19911;-47
2022/03/26 07:58:21;;;;;;;;;;;;;;;;;;5053078;28;20338;-47
2022/03/26 08:00:48;;;;;;;;;;;;;;;;;;5053117;28;19934;-47
2022/03/26 08:03:14;;;;;;;;;;;;;;;;;;5052929;28;19924;-46
2022/03/26 08:05:40;;;;;;;;;;;;;;;;;;5052995;28;19942;-47
2022/03/26 08:08:06;;;;;;;;;;;;;;;;;;5053101;28;20014;-46
2022/03/26 08:10:32;;;;;;;;;;;;;;;;;;5053233;28;19908;-48
2022/03/26 08:12:58;;;;;;;;;;;;;;;;;;5052937;28;20416;-48
2022/03/26 08:15:24;;;;;;;;;;;;;;;;;;5052744;28;19912;-47
2022/03/26 08:17:50;;;;;;;;;;;;;;;;;;5052737;28;19908;-47
2022/03/26 08:20:15;;;;;;;;;;;;;;;;;;5052865;28;20374;-47
2022/03/26 08:22:41;;;;;;;;;;;;;;;;;;5052847;28;19959;-47
2022/03/26 08:25:09;;;;;;;;;;;;;;;;;;5052706;28;19905;-47
2022/03/26 08:27:35;;;;;;;;;;;;;;;;;;5052965;28;20266;-47
2022/03/26 08:30:01;;;;;;;;;;;;;;;;;;5052669;28;19912;-48
2022/03/26 08:32:27;;;;;;;;;;;;;;;;;;5052676;28;19967;-46
2022/03/26 08:34:53;;;;;;;;;;;;;;;;;;5052562;28;19909;-48
2022/03/26 08:37:19;;;;;;;;;;;;;;;;;;5052555;28;19988;-48
2022/03/26 08:39:45;;;;;;;;;;;;;;;;;;5052577;28;20394;-60
2022/03/26 08:42:10;;;;;;;;;;;;;;;;;;5052576;28;19909;-59
2022/03/26 08:44:36;;;;;;;;;;;;;;;;;;5052165;28;19912;-61
2022/03/26 08:47:04;;;;;;;;;;;;;;;;;;5052442;28;20385;-60
2022/03/26 08:49:30;;;;;;;;;;;;;;;;;;5052490;28;19909;-61
2022/03/26 08:51:56;;;;;;;;;;;;;;;;;;5052332;28;20252;-60
2022/03/26 08:54:22;;;;;;;;;;;;;;;;;;5052631;28;19905;-60
2022/03/26 08:56:48;;;;;;;;;;;;;;;;;;5052410;28;19975;-60
2022/03/26 08:59:14;;;;;;;;;;;;;;;;;;5052354;28;19995;-60
2022/03/26 09:01:40;;;;;;;;;;;;;;;;;;5051901;28;19951;-60
2022/03/26 09:04:06;;;;;;;;;;;;;;;;;;5052394;28;19913;-60
2022/03/26 09:06:32;;;;;;;;;;;;;;;;;;5052332;28;20385;-60
2022/03/26 09:08:59;;;;;;;;;;;;;;;;;;5052307;28;19905;-61
2022/03/26 09:11:25;;;;;;;;;;;;;;;;;;5052337;28;19980;-59
2022/03/26 09:13:51;;;;;;;;;;;;;;;;;;5052513;28;19905;-58
2022/03/26 09:16:17;;;;;;;;;;;;;;;;;;5052558;28;19905;-59
2022/03/26 09:18:43;;;;;;;;;;;;;;;;;;5052227;28;19912;-60
2022/03/26 09:21:10;;;;;;;;;;;;;;;;;;5052229;28;19911;-59
2022/03/26 09:23:36;;;;;;;;;;;;;;;;;;5052498;28;20002;-59
2022/03/26 09:26:04;;;;;;;;;;;;;;;;;;5052121;28;20379;-59
2022/03/26 09:28:30;;;;;;;;;;;;;;;;;;5052180;28;19971;-59
2022/03/26 09:30:55;;;;;;;;;;;;;;;;;;5052382;28;19908;-60
2022/03/26 09:33:21;;;;;;;;;;;;;;;;;;5052058;28;19927;-59
2022/03/26 09:35:47;;;;;;;;;;;;;;;;;;5052115;28;19951;-59
2022/03/26 09:38:14;;;;;;;;;;;;;;;;;;5052059;28;19908;-59
2022/03/26 09:40:39;;;;;;;;;;;;;;;;;;5052024;28;19991;-59
2022/03/26 09:43:05;;;;;;;;;;;;;;;;;;5052265;28;19943;-59
2022/03/26 09:45:31;;;;;;;;;;;;;;;;;;5051869;28;19909;-59
2022/03/26 09:47:57;;;;;;;;;;;;;;;;;;5051961;28;19908;-60
2022/03/26 09:50:23;;;;;;;;;;;;;;;;;;5052024;28;20421;-60
2022/03/26 09:52:49;;;;;;;;;;;;;;;;;;5052203;28;19905;-60
2022/03/26 09:55:17;;;;;;;;;;;;;;;;;;5053204;28;19904;-61
2022/03/26 09:57:43;;;;;;;;;;;;;;;;;;5055549;28;20043;-60
2022/03/26 10:00:09;;;;;;;;;;;;;;;;;;5055452;28;20002;-61
2022/03/26 10:02:35;;;;;;;;;;;;;;;;;;5055140;28;20295;-61
2022/03/26 10:05:01;;;;;;;;;;;;;;;;;;5055226;28;19905;-60
2022/03/26 10:07:28;;;;;;;;;;;;;;;;;;5055206;28;20389;-60
2022/03/26 10:09:55;;;;;;;;;;;;;;;;;;5055186;28;19995;-60
2022/03/26 10:12:26;;;;;;;;;;;;;;;;;;5055494;28;19904;-60
2022/03/26 10:14:51;;;;;;;;;;;;;;;;;;5055344;28;19905;-60
2022/03/26 10:17:17;;;;;;;;;;;;;;;;;;5055273;28;20003;-60
2022/03/26 10:19:43;;;;;;;;;;;;;;;;;;5055241;28;19905;-60
2022/03/26 10:22:09;;;;;;;;;;;;;;;;;;5054914;28;20369;-60
2022/03/26 10:24:35;;;;;;;;;;;;;;;;;;5054909;28;19984;-60
2022/03/26 10:27:01;;;;;;;;;;;;;;;;;;5055128;28;19955;-60
2022/03/26 10:29:27;;;;;;;;;;;;;;;;;;5054976;28;20284;-60
2022/03/26 10:34:37;;;;;;;;;;;;;;;;;;5054891;28;19999;-60
2022/03/26 10:37:03;;;;;;;;;;;;;;;;;;5054633;28;20343;-60
2022/03/26 10:39:29;;;;;;;;;;;;;;;;;;5054730;28;19905;-60
2022/03/26 10:41:55;;;;;;;;;;;;;;;;;;5054722;28;19995;-60
2022/03/26 10:44:21;;;;;;;;;;;;;;;;;;5054290;28;19905;-60
2022/03/26 10:46:47;;;;;;;;;;;;;;;;;;5054104;28;20467;-60
2022/03/26 10:49:13;;;;;;;;;;;;;;;;;;5054299;28;19911;-60
2022/03/26 10:51:41;;;;;;;;;;;;;;;;;;5054298;28;19905;-60
2022/03/26 10:54:07;;;;;;;;;;;;;;;;;;5054422;28;19957;-60
2022/03/26 10:56:32;;;;;;;;;;;;;;;;;;5054591;28;20004;-60
2022/03/26 10:58:58;;;;;;;;;;;;;;;;;;5054288;28;20295;-60
2022/03/26 11:01:24;;;;;;;;;;;;;;;;;;5054183;28;19911;-60
2022/03/26 11:03:50;;;;;;;;;;;;;;;;;;5054149;28;19967;-60
2022/03/26 11:06:16;;;;;;;;;;;;;;;;;;5054008;28;20379;-60
2022/03/26 11:08:42;;;;;;;;;;;;;;;;;;5054142;28;19951;-60
2022/03/26 11:11:08;;;;;;;;;;;;;;;;;;5054150;28;19905;-60
2022/03/26 11:13:34;;;;;;;;;;;;;;;;;;5054185;28;19912;-60
2022/03/26 11:15:59;;;;;;;;;;;;;;;;;;5054268;28;19912;-60
2022/03/26 11:18:25;;;;;;;;;;;;;;;;;;5054504;28;19905;-60
2022/03/26 11:20:52;;;;;;;;;;;;;;;;;;5053928;28;19905;-60
2022/03/26 11:23:18;;;;;;;;;;;;;;;;;;5053885;28;19904;-60
2022/03/26 11:25:44;;;;;;;;;;;;;;;;;;5053859;28;19913;-60
2022/03/26 11:28:09;;;;;;;;;;;;;;;;;;5053802;28;19995;-60
2022/03/26 11:30:35;;;;;;;;;;;;;;;;;;5054056;28;19905;-61
2022/03/26 11:33:01;;;;;;;;;;;;;;;;;;5053640;28;20080;-60
2022/03/26 11:35:27;;;;;;;;;;;;;;;;;;5053592;28;19905;-60
2022/03/26 11:37:53;;;;;;;;;;;;;;;;;;5053586;28;19931;-60
2022/03/26 11:40:19;;;;;;;;;;;;;;;;;;5053468;28;19904;-60
2022/03/26 11:42:45;;;;;;;;;;;;;;;;;;5053749;28;20328;-60
2022/03/26 11:50:44;;;;;;;;;;;;;;;;;;5053370;28;19912;-60
2022/03/26 11:53:10;;;;;;;;;;;;;;;;;;5053396;28;20295;-60
2022/03/26 11:55:36;;;;;;;;;;;;;;;;;;5053345;28;19905;-60
2022/03/26 11:58:02;;;;;;;;;;;;;;;;;;5053212;28;19948;-61
2022/03/26 12:00:28;;;;;;;;;;;;;;;;;;5053151;28;19912;-60
2022/03/26 12:02:54;;;;;;;;;;;;;;;;;;5052966;28;19962;-60
2022/03/26 12:08:05;;;;;;;;;;;;;;;;;;5053138;28;20333;-60
2022/03/26 12:10:30;;;;;;;;;;;;;;;;;;5053240;28;19908;-60
2022/03/26 12:12:56;;;;;;;;;;;;;;;;;;5052959;28;19905;-60
2022/03/26 12:15:22;;;;;;;;;;;;;;;;;;5052896;28;19904;-60
2022/03/26 12:17:48;;;;;;;;;;;;;;;;;;5052219;28;20355;-60
2022/03/26 12:20:14;;;;;;;;;;;;;;;;;;5053121;28;19991;-60
2022/03/26 12:22:40;;;;;;;;;;;;;;;;;;5052793;28;20353;-49
2022/03/26 12:25:06;;;;;;;;;;;;;;;;;;5052628;28;19904;-50
2022/03/26 12:27:31;;;;;;;;;;;;;;;;;;5052751;28;19973;-50
2022/03/26 12:29:58;;;;;;;;;;;;;;;;;;5052732;28;20362;-50
2022/03/26 12:32:23;;;;;;;;;;;;;;;;;;5053208;28;19909;-50
2022/03/26 12:34:49;;;;;;;;;;;;;;;;;;5052844;28;19905;-47
2022/03/26 12:37:15;;;;;;;;;;;;;;;;;;5052654;28;19950;-49
2022/03/26 12:39:41;;;;;;;;;;;;;;;;;;5053149;28;20317;-50
2022/03/26 12:42:07;;;;;;;;;;;;;;;;;;5052675;28;20003;-49
2022/03/26 12:44:33;;;;;;;;;;;;;;;;;;5052513;28;20010;-49
2022/03/26 12:46:59;;;;;;;;;;;;;;;;;;5052430;28;20293;-49
2022/03/26 12:49:25;;;;;;;;;;;;;;;;;;5052438;28;19905;-49
2022/03/26 12:51:51;;;;;;;;;;;;;;;;;;5052407;28;20004;-49
2022/03/26 12:54:17;;;;;;;;;;;;;;;;;;5052447;28;20382;-49
2022/03/26 12:56:43;;;;;;;;;;;;;;;;;;5052493;28;19905;-50
2022/03/26 12:59:09;;;;;;;;;;;;;;;;;;5052687;28;19958;-48
2022/03/26 13:01:35;;;;;;;;;;;;;;;;;;5052267;28;20011;-49
2022/03/26 13:04:01;;;;;;;;;;;;;;;;;;5052589;28;19917;-49
2022/03/26 13:06:27;;;;;;;;;;;;;;;;;;5052079;28;19958;-51
2022/03/26 13:08:53;;;;;;;;;;;;;;;;;;5052247;28;20363;-49
2022/03/26 13:11:19;;;;;;;;;;;;;;;;;;5052203;28;19995;-50
2022/03/26 13:13:45;;;;;;;;;;;;;;;;;;5052237;28;19912;-49
2022/03/26 13:16:14;;;;;;;;;;;;;;;;;;5052569;28;19908;-49
2022/03/26 13:18:40;;;;;;;;;;;;;;;;;;5052152;28;20006;-49
2022/03/26 13:21:06;;;;;;;;;;;;;;;;;;5052500;28;19905;-50
2022/03/26 13:23:32;;;;;;;;;;;;;;;;;;5052156;28;20449;-50
2022/03/26 13:25:58;;;;;;;;;;;;;;;;;;5052063;28;19915;-49
2022/03/26 13:28:24;;;;;;;;;;;;;;;;;;5052095;28;19946;-50
2022/03/26 13:30:50;;;;;;;;;;;;;;;;;;5055805;28;19904;-48
2022/03/26 13:33:15;;;;;;;;;;;;;;;;;;5056029;28;19974;-49
2022/03/26 13:35:41;;;;;;;;;;;;;;;;;;5056196;28;20007;-49
2022/03/26 13:38:07;;;;;;;;;;;;;;;;;;5055758;28;19904;-47
2022/03/26 13:40:33;;;;;;;;;;;;;;;;;;5055756;28;19905;-46
2022/03/26 13:43:00;;;;;;;;;;;;;;;;;;5055963;28;19958;-47
2022/03/26 13:45:26;;;;;;;;;;;;;;;;;;5055770;28;19913;-47
2022/03/26 13:47:52;;;;;;;;;;;;;;;;;;5055990;28;19909;-47
2022/03/26 13:50:18;;;;;;;;;;;;;;;;;;5055825;28;19947;-47
2022/03/26 13:52:46;;;;;;;;;;;;;;;;;;5056172;28;19959;-47
2022/03/26 13:55:11;;;;;;;;;;;;;;;;;;5055587;28;19909;-47
2022/03/26 13:57:37;;;;;;;;;;;;;;;;;;5055651;28;19954;-48
2022/03/26 14:00:03;;;;;;;;;;;;;;;;;;5055468;28;19911;-48
2022/03/26 14:02:29;;;;;;;;;;;;;;;;;;5055141;28;19924;-47
2022/03/26 14:04:55;;;;;;;;;;;;;;;;;;5055339;28;19905;-47
2022/03/26 14:07:21;;;;;;;;;;;;;;;;;;5055278;28;20386;-48
2022/03/26 14:09:47;;;;;;;;;;;;;;;;;;5055350;28;19950;-48
2022/03/26 14:12:12;;;;;;;;;;;;;;;;;;5055307;28;19912;-46
2022/03/26 14:14:38;;;;;;;;;;;;;;;;;;5055211;28;19973;-46
2022/03/26 14:17:04;;;;;;;;;;;;;;;;;;5055131;28;19904;-47
2022/03/26 14:19:31;;;;;;;;;;;;;;;;;;5055144;28;20409;-46
2022/03/26 14:21:57;;;;;;;;;;;;;;;;;;5054966;28;19905;-47
2022/03/26 14:24:22;;;;;;;;;;;;;;;;;;5054998;28;20385;-47
2022/03/26 14:26:48;;;;;;;;;;;;;;;;;;5054920;28;20035;-47
2022/03/26 14:29:14;;;;;;;;;;;;;;;;;;5055236;28;19905;-46
2022/03/26 14:31:40;;;;;;;;;;;;;;;;;;5054855;28;19908;-47
2022/03/26 14:34:06;;;;;;;;;;;;;;;;;;5054797;28;19905;-47
2022/03/26 14:36:33;;;;;;;;;;;;;;;;;;5054655;28;19912;-47
2022/03/26 14:38:59;;;;;;;;;;;;;;;;;;5054637;28;20003;-47
2022/03/26 14:41:24;;;;;;;;;;;;;;;;;;5054119;28;20359;-47
2022/03/26 14:43:50;;;;;;;;;;;;;;;;;;5054660;28;19982;-46
2022/03/26 14:46:16;;;;;;;;;;;;;;;;;;5054586;28;20372;-47
2022/03/26 14:48:42;;;;;;;;;;;;;;;;;;5054763;28;20008;-58
2022/03/26 14:51:08;;;;;;;;;;;;;;;;;;5054452;28;19905;-58
2022/03/26 14:53:34;;;;;;;;;;;;;;;;;;5054245;28;19948;-58
2022/03/26 14:56:01;;;;;;;;;;;;;;;;;;5054615;28;19911;-58
2022/03/26 14:58:27;;;;;;;;;;;;;;;;;;5054057;28;19995;-58
2022/03/26 15:00:53;;;;;;;;;;;;;;;;;;5054219;28;19958;-58
2022/03/26 15:03:19;;;;;;;;;;;;;;;;;;5053906;28;20307;-59
2022/03/26 15:05:44;;;;;;;;;;;;;;;;;;5054061;28;19915;-58
2022/03/26 15:08:10;;;;;;;;;;;;;;;;;;5053969;28;20379;-58
2022/03/26 15:10:36;;;;;;;;;;;;;;;;;;5054297;28;20003;-59
2022/03/26 15:13:02;;;;;;;;;;;;;;;;;;5053956;28;20381;-58
2022/03/26 15:15:28;;;;;;;;;;;;;;;;;;5054130;28;20268;-58
2022/03/26 15:17:54;;;;;;;;;;;;;;;;;;5054102;28;19927;-59
2022/03/26 15:20:20;;;;;;;;;;;;;;;;;;5054063;28;20280;-58
2022/03/26 15:22:46;;;;;;;;;;;;;;;;;;5053839;28;20431;-58
2022/03/26 15:25:12;;;;;;;;;;;;;;;;;;5053668;28;19951;-58
2022/03/26 15:27:38;;;;;;;;;;;;;;;;;;5054016;28;19909;-58
2022/03/26 15:30:03;;;;;;;;;;;;;;;;;;5053770;28;19904;-61
2022/03/26 15:32:30;;;;;;;;;;;;;;;;;;5053313;28;19904;-60
2022/03/26 15:34:58;;;;;;;;;;;;;;;;;;5053350;28;19905;-61
2022/03/26 15:37:24;;;;;;;;;;;;;;;;;;5053558;28;19905;-61
2022/03/26 15:39:50;;;;;;;;;;;;;;;;;;5053574;28;19981;-61
2022/03/26 15:42:15;;;;;;;;;;;;;;;;;;5053597;28;19975;-60
2022/03/26 15:44:41;;;;;;;;;;;;;;;;;;5053199;28;19904;-61
2022/03/26 15:47:07;;;;;;;;;;;;;;;;;;5053074;28;20335;-61
2022/03/26 15:49:33;;;;;;;;;;;;;;;;;;5053228;28;19919;-60
2022/03/26 15:51:59;;;;;;;;;;;;;;;;;;5053141;28;19904;-61
2022/03/26 15:54:25;;;;;;;;;;;;;;;;;;5052536;28;20330;-60
2022/03/26 15:56:51;;;;;;;;;;;;;;;;;;5053086;28;19916;-60
2022/03/26 15:59:17;;;;;;;;;;;;;;;;;;5052996;28;20324;-60
2022/03/26 16:01:43;;;;;;;;;;;;;;;;;;5052911;28;19931;-59
2022/03/26 16:04:09;;;;;;;;;;;;;;;;;;5053203;28;19912;-61
2022/03/26 16:06:35;;;;;;;;;;;;;;;;;;5052856;28;19948;-61
2022/03/26 16:09:00;;;;;;;;;;;;;;;;;;5052981;28;19909;-60
2022/03/26 16:11:26;;;;;;;;;;;;;;;;;;5052815;28;19991;-60
2022/03/26 16:13:52;;;;;;;;;;;;;;;;;;5052833;28;19909;-59
2022/03/26 16:16:18;;;;;;;;;;;;;;;;;;5052660;28;20286;-58
2022/03/26 16:18:44;;;;;;;;;;;;;;;;;;5052482;28;19912;-58
2022/03/26 16:21:10;;;;;;;;;;;;;;;;;;5052806;28;19911;-58
2022/03/26 16:23:36;;;;;;;;;;;;;;;;;;5052813;28;19909;-58
2022/03/26 16:26:02;;;;;;;;;;;;;;;;;;5052788;28;19920;-58
2022/03/26 16:28:28;;;;;;;;;;;;;;;;;;5052796;28;20268;-58
2022/03/26 16:30:54;;;;;;;;;;;;;;;;;;5052917;28;19987;-59
2022/03/26 16:33:20;;;;;;;;;;;;;;;;;;5052746;28;19948;-58
2022/03/26 16:35:47;;;;;;;;;;;;;;;;;;5052659;28;19911;-58
2022/03/26 16:38:13;;;;;;;;;;;;;;;;;;5053005;28;19995;-58
2022/03/26 16:40:40;;;;;;;;;;;;;;;;;;5052873;28;20342;-58
2022/03/26 16:43:06;;;;;;;;;;;;;;;;;;5052573;28;19905;-58
2022/03/26 16:45:32;;;;;;;;;;;;;;;;;;5052456;28;19911;-59
2022/03/26 16:47:58;;;;;;;;;;;;;;;;;;5052918;28;19958;-59